aviador You're here:

LKTB Decoded Metar

TURANY in CZECH REPUBLIC
Report Time2018-01-21 06:30:00
UTC Time2018-01-21 06:50:36
Flight Rules mvfr MVFR
Wind050° at 03 kt
W.Decomp.*RWY 09: 2.2 kt HW 2 kt LCW
RWY 10: 1.8 kt HW 2.4 kt LCW
W.Rank050° ranks 9
Current wind is below 050° avg. (5.8)
Visibility6000 m
Phenomena:Light Snow
Clouds:Few 018 Hf
Overcast 032 Hf
Expected CloudBase > 400 ft AGL from Temp-Dew spread
Ceiling3,200 ft
Temp00°C (ISA -13)
Dew Point-1°C (93% RH)
AAT-3.2°C
QNH1003 hPa
Density Alt-404 ft
Elevation807 ft
Report Wrong Elevation
Raw Report
LKTB 210630Z 05003KT 6000 -SN FEW018 OVC032 00/M01 Q1003
R27/591091 NOSIG=

Extra information for LKTB:More info

Metar Taf Metar & Taf Last 4 Metars F.Rules Stats Wind Profile Meteogram Temp Stats Airport Information Weather charts Add Link Nearby VenuesMetar ALERT Operation Metar Decoded Social comments